Time;durP1;ratioP1;P1;durP2;ratioP2;P2;SDS_P1;SDS_P2;PMS_P1;PMS_P2;Temp;Humidity;BMP_temperature;BMP_pressure;BME280_temperature;BME280_humidity;BME280_pressure;Samples;Min_cycle;Max_cycle;Signal;HPM_P1;HPM_P2
2022/09/25 00:02:23;;;;;;;25.97;17.10;;;;;;;;;;5131379;27;20540;-70
2022/09/25 00:04:52;;;;;;;26.43;15.60;;;;;;;;;;5134271;27;20477;-70
2022/09/25 00:07:21;;;;;;;22.03;15.80;;;;;;;;;;5116024;28;20531;-70
2022/09/25 00:09:48;;;;;;;25.70;17.10;;;;;;;;;;5126688;27;20481;-69
2022/09/25 00:12:16;;;;;;;25.40;16.77;;;;;;;;;;5119872;28;20548;-69
2022/09/25 00:14:44;;;;;;;24.53;17.00;;;;;;;;;;5132116;27;20869;-69
2022/09/25 00:17:12;;;;;;;24.30;15.47;;;;;;;;;;5135829;27;20463;-69
2022/09/25 00:19:51;;;;;;;25.67;16.47;;;;;;;;;;5134424;27;20606;-69
2022/09/25 00:22:21;;;;;;;21.50;15.13;;;;;;;;;;5134992;27;20480;-69
2022/09/25 00:24:49;;;;;;;26.73;17.57;;;;;;;;;;5115207;28;20454;-69
2022/09/25 00:27:18;;;;;;;24.60;16.67;;;;;;;;;;5114232;28;20450;-69
2022/09/25 00:29:46;;;;;;;25.00;17.40;;;;;;;;;;5113294;28;20485;-69
2022/09/25 00:32:14;;;;;;;23.73;16.37;;;;;;;;;;5115160;28;20473;-69
2022/09/25 00:34:42;;;;;;;27.03;18.30;;;;;;;;;;5129842;27;20446;-69
2022/09/25 00:37:09;;;;;;;23.70;16.77;;;;;;;;;;5136344;27;20462;-68
2022/09/25 00:39:38;;;;;;;26.30;17.77;;;;;;;;;;5135046;27;20453;-70
2022/09/25 00:42:05;;;;;;;26.00;17.03;;;;;;;;;;5129083;27;20463;-70
2022/09/25 00:44:55;;;;;;;26.00;16.87;;;;;;;;;;5117233;27;20447;-70
2022/09/25 00:47:24;;;;;;;22.40;16.33;;;;;;;;;;5134538;27;20554;-70
2022/09/25 00:49:53;;;;;;;22.90;15.33;;;;;;;;;;5133854;27;20481;-69
2022/09/25 00:52:21;;;;;;;21.17;15.47;;;;;;;;;;5135486;27;20551;-69
2022/09/25 00:54:51;;;;;;;20.87;16.80;;;;;;;;;;5135639;27;20446;-71
2022/09/25 00:57:21;;;;;;;24.00;16.57;;;;;;;;;;5133815;27;20462;-70
2022/09/25 00:59:51;;;;;;;25.37;15.87;;;;;;;;;;5131602;27;20759;-69
2022/09/25 01:02:21;;;;;;;23.60;16.50;;;;;;;;;;5118810;27;20499;-70
2022/09/25 01:04:49;;;;;;;24.97;15.67;;;;;;;;;;5131295;27;20877;-69
2022/09/25 01:07:16;;;;;;;23.40;16.27;;;;;;;;;;5122945;27;20750;-70
2022/09/25 01:09:44;;;;;;;28.13;16.80;;;;;;;;;;5117114;28;20462;-69
2022/09/25 01:12:12;;;;;;;26.07;16.67;;;;;;;;;;5136415;27;20453;-70
2022/09/25 01:14:41;;;;;;;26.30;17.37;;;;;;;;;;5139202;27;20542;-69
2022/09/25 01:17:14;;;;;;;29.43;17.47;;;;;;;;;;5135543;27;20484;-69
2022/09/25 01:19:46;;;;;;;29.50;16.97;;;;;;;;;;5135907;27;20765;-70
2022/09/25 01:22:19;;;;;;;25.33;17.27;;;;;;;;;;5137062;27;20449;-69
2022/09/25 01:24:52;;;;;;;22.57;16.23;;;;;;;;;;5131151;27;20521;-69
2022/09/25 01:27:36;;;;;;;22.97;14.57;;;;;;;;;;5125522;27;20453;-69
2022/09/25 01:30:08;;;;;;;25.53;15.27;;;;;;;;;;5137015;27;20513;-69
2022/09/25 01:32:40;;;;;;;26.80;16.20;;;;;;;;;;5133434;28;20477;-69
2022/09/25 01:35:14;;;;;;;28.47;17.23;;;;;;;;;;5122302;27;20465;-69
2022/09/25 01:37:45;;;;;;;26.47;16.10;;;;;;;;;;5138001;27;20454;-69
2022/09/25 01:40:15;;;;;;;22.33;15.10;;;;;;;;;;5137525;27;20866;-70
2022/09/25 01:42:44;;;;;;;26.50;16.70;;;;;;;;;;5138072;27;20477;-70
2022/09/25 01:45:15;;;;;;;29.27;17.30;;;;;;;;;;5137391;27;20881;-69
2022/09/25 01:47:47;;;;;;;26.87;15.43;;;;;;;;;;5138079;27;20446;-69
2022/09/25 01:50:17;;;;;;;24.33;14.40;;;;;;;;;;5126542;27;20487;-69
2022/09/25 01:52:49;;;;;;;25.13;15.90;;;;;;;;;;5116969;27;20449;-69
2022/09/25 01:55:19;;;;;;;26.37;15.70;;;;;;;;;;5117406;27;20519;-69
2022/09/25 01:57:50;;;;;;;27.13;14.97;;;;;;;;;;5117833;27;20461;-69
2022/09/25 02:00:20;;;;;;;24.67;16.63;;;;;;;;;;5118023;28;20515;-69
2022/09/25 02:02:54;;;;;;;36.50;17.07;;;;;;;;;;5130179;27;20450;-69
2022/09/25 02:05:25;;;;;;;27.17;16.60;;;;;;;;;;5126836;28;20595;-69
2022/09/25 02:07:54;;;;;;;28.80;17.20;;;;;;;;;;5136006;27;20445;-69
2022/09/25 02:10:25;;;;;;;26.57;16.70;;;;;;;;;;5121393;27;20593;-69
2022/09/25 02:12:53;;;;;;;24.57;14.70;;;;;;;;;;5136287;27;20453;-69
2022/09/25 02:15:23;;;;;;;29.57;15.77;;;;;;;;;;5129271;27;20454;-69
2022/09/25 02:20:41;;;;;;;26.73;14.47;;;;;;;;;;5136937;27;20767;-70
2022/09/25 02:23:12;;;;;;;31.20;18.03;;;;;;;;;;5136486;27;20792;-70
2022/09/25 02:25:43;;;;;;;27.20;16.60;;;;;;;;;;5135890;27;20961;-69
2022/09/25 02:28:10;;;;;;;33.17;17.67;;;;;;;;;;5137458;27;20442;-69
2022/09/25 02:30:38;;;;;;;28.67;16.57;;;;;;;;;;5120475;27;20483;-70
2022/09/25 02:33:05;;;;;;;26.63;18.10;;;;;;;;;;5117677;27;20462;-69
2022/09/25 02:35:32;;;;;;;30.30;18.30;;;;;;;;;;5131114;27;20454;-69
2022/09/25 02:38:00;;;;;;;25.90;16.17;;;;;;;;;;5129393;27;20446;-69
2022/09/25 02:40:33;;;;;;;29.47;16.33;;;;;;;;;;5138756;27;20450;-69
2022/09/25 02:43:06;;;;;;;27.73;16.70;;;;;;;;;;5133995;27;21009;-69
2022/09/25 02:45:38;;;;;;;27.40;16.30;;;;;;;;;;5135184;27;20734;-69
2022/09/25 02:48:11;;;;;;;29.93;17.33;;;;;;;;;;5118076;28;20477;-69
2022/09/25 02:50:41;;;;;;;29.03;18.60;;;;;;;;;;5117767;28;20902;-69
2022/09/25 02:53:09;;;;;;;31.23;17.10;;;;;;;;;;5130859;27;20449;-69
2022/09/25 02:55:43;;;;;;;30.27;17.53;;;;;;;;;;5133957;27;20485;-70
2022/09/25 02:58:16;;;;;;;35.47;18.70;;;;;;;;;;5119567;27;21020;-69
2022/09/25 03:00:46;;;;;;;37.13;19.57;;;;;;;;;;5136631;27;20446;-70
2022/09/25 03:03:16;;;;;;;37.53;19.33;;;;;;;;;;5134373;27;20454;-69
2022/09/25 03:05:43;;;;;;;34.00;18.53;;;;;;;;;;5137660;27;20454;-69
2022/09/25 03:10:55;;;;;;;37.03;19.10;;;;;;;;;;5125248;28;20554;-70
2022/09/25 03:13:25;;;;;;;36.63;19.03;;;;;;;;;;5137492;27;20452;-70
2022/09/25 03:15:57;;;;;;;38.10;19.77;;;;;;;;;;5137212;27;20450;-70
2022/09/25 03:18:30;;;;;;;37.00;21.87;;;;;;;;;;5134997;27;20496;-70
2022/09/25 03:20:58;;;;;;;38.00;20.00;;;;;;;;;;5122543;27;20454;-69
2022/09/25 03:23:28;;;;;;;38.33;20.10;;;;;;;;;;5121504;28;20494;-70
2022/09/25 03:25:56;;;;;;;40.13;19.30;;;;;;;;;;5134246;27;20703;-70
2022/09/25 03:28:23;;;;;;;41.33;21.37;;;;;;;;;;5125154;27;20462;-70
2022/09/25 03:30:58;;;;;;;34.83;17.53;;;;;;;;;;5120367;28;20486;-70
2022/09/25 03:33:31;;;;;;;30.07;16.97;;;;;;;;;;5125666;27;20449;-70
2022/09/25 03:36:03;;;;;;;32.53;17.30;;;;;;;;;;5116727;28;20530;-70
2022/09/25 03:38:30;;;;;;;28.93;16.73;;;;;;;;;;5132519;28;20887;-70
2022/09/25 03:40:57;;;;;;;35.83;18.60;;;;;;;;;;5116201;28;20528;-70
2022/09/25 03:43:24;;;;;;;31.57;17.40;;;;;;;;;;5136412;27;20454;-69
2022/09/25 03:45:51;;;;;;;28.20;16.97;;;;;;;;;;5122381;28;20854;-69
2022/09/25 03:48:20;;;;;;;33.97;17.20;;;;;;;;;;5119446;28;20445;-70
2022/09/25 03:50:49;;;;;;;34.80;18.83;;;;;;;;;;5134026;27;20499;-69
2022/09/25 03:53:17;;;;;;;31.33;17.33;;;;;;;;;;5122475;28;20500;-70
2022/09/25 03:55:47;;;;;;;39.10;20.70;;;;;;;;;;5134402;27;20477;-69
2022/09/25 03:58:15;;;;;;;30.40;17.30;;;;;;;;;;5135903;27;20449;-69
2022/09/25 04:00:43;;;;;;;35.20;18.67;;;;;;;;;;5131418;27;20496;-70
2022/09/25 04:03:10;;;;;;;32.60;19.50;;;;;;;;;;5132091;27;20465;-69
2022/09/25 04:05:40;;;;;;;36.47;20.13;;;;;;;;;;5133752;27;20761;-70
2022/09/25 04:08:08;;;;;;;33.17;17.67;;;;;;;;;;5133348;27;20458;-69
2022/09/25 04:10:37;;;;;;;45.70;19.23;;;;;;;;;;5115020;28;20639;-69
2022/09/25 04:13:05;;;;;;;37.57;19.13;;;;;;;;;;5122708;27;20462;-69
2022/09/25 04:15:33;;;;;;;28.10;15.87;;;;;;;;;;5136640;27;20460;-70
2022/09/25 04:18:02;;;;;;;33.63;16.97;;;;;;;;;;5135635;27;20764;-69
2022/09/25 04:20:30;;;;;;;27.03;14.90;;;;;;;;;;5136168;27;20902;-70
2022/09/25 04:22:59;;;;;;;30.20;14.80;;;;;;;;;;5134732;27;20949;-68
2022/09/25 04:25:28;;;;;;;27.33;14.67;;;;;;;;;;5135867;27;20453;-70
2022/09/25 04:27:55;;;;;;;30.17;15.60;;;;;;;;;;5128480;27;20462;-68
2022/09/25 04:30:23;;;;;;;30.90;16.37;;;;;;;;;;5114666;27;20486;-68
2022/09/25 04:35:35;;;;;;;32.90;13.87;;;;;;;;;;5114462;28;20496;-68
2022/09/25 04:38:08;;;;;;;25.73;14.10;;;;;;;;;;5115143;28;20443;-71
2022/09/25 04:40:38;;;;;;;27.00;15.33;;;;;;;;;;5113487;28;20528;-69
2022/09/25 04:43:07;;;;;;;31.83;15.17;;;;;;;;;;5114132;28;20564;-70
2022/09/25 04:45:36;;;;;;;29.83;14.90;;;;;;;;;;5134048;27;20971;-69
2022/09/25 04:48:04;;;;;;;32.00;15.13;;;;;;;;;;5134569;27;20453;-69
2022/09/25 04:50:31;;;;;;;28.83;14.13;;;;;;;;;;5118470;27;20501;-69
2022/09/25 04:52:59;;;;;;;23.50;14.80;;;;;;;;;;5122019;27;20437;-69
2022/09/25 04:55:27;;;;;;;35.70;17.70;;;;;;;;;;5133444;27;20518;-69
2022/09/25 04:57:55;;;;;;;31.67;16.87;;;;;;;;;;5135348;27;20457;-69
2022/09/25 05:00:23;;;;;;;28.20;14.43;;;;;;;;;;5132906;27;20591;-69
2022/09/25 05:02:50;;;;;;;28.30;16.10;;;;;;;;;;5134057;27;20532;-70
2022/09/25 05:05:18;;;;;;;25.53;13.40;;;;;;;;;;5135432;27;20553;-70
2022/09/25 05:07:51;;;;;;;27.53;14.43;;;;;;;;;;5135245;27;20874;-69
2022/09/25 05:10:22;;;;;;;28.47;15.77;;;;;;;;;;5134320;27;20800;-71
2022/09/25 05:12:56;;;;;;;28.50;15.50;;;;;;;;;;5127920;27;20478;-70
2022/09/25 05:15:23;;;;;;;25.63;15.13;;;;;;;;;;5118148;27;20462;-70
2022/09/25 05:17:51;;;;;;;26.73;13.93;;;;;;;;;;5126754;27;20804;-69
2022/09/25 05:20:18;;;;;;;30.57;14.73;;;;;;;;;;5126260;27;20527;-69
2022/09/25 05:22:45;;;;;;;28.83;15.47;;;;;;;;;;5119702;28;20459;-69
2022/09/25 05:25:12;;;;;;;28.03;15.00;;;;;;;;;;5129621;27;20465;-69
2022/09/25 05:27:39;;;;;;;29.70;15.53;;;;;;;;;;5118519;28;20941;-69
2022/09/25 05:30:10;;;;;;;29.43;15.90;;;;;;;;;;5133522;27;20461;-69
2022/09/25 05:32:37;;;;;;;31.50;14.90;;;;;;;;;;5134683;27;20937;-69
2022/09/25 05:35:04;;;;;;;25.57;14.53;;;;;;;;;;5134945;27;20549;-69
2022/09/25 05:37:31;;;;;;;32.97;16.73;;;;;;;;;;5135099;27;20734;-70
2022/09/25 05:39:58;;;;;;;29.00;16.73;;;;;;;;;;5121463;27;20457;-69
2022/09/25 05:42:28;;;;;;;33.03;15.93;;;;;;;;;;5132693;27;20748;-70
2022/09/25 05:44:57;;;;;;;28.77;15.27;;;;;;;;;;5125251;27;20530;-70
2022/09/25 05:47:27;;;;;;;40.10;16.30;;;;;;;;;;5125617;27;20453;-70
2022/09/25 05:49:54;;;;;;;32.07;15.30;;;;;;;;;;5130488;27;20556;-69
2022/09/25 05:52:21;;;;;;;30.00;14.93;;;;;;;;;;5115524;28;20485;-69
2022/09/25 05:54:52;;;;;;;27.90;13.83;;;;;;;;;;5138226;27;20504;-69
2022/09/25 05:57:19;;;;;;;30.40;14.57;;;;;;;;;;5133615;27;20798;-69
2022/09/25 05:59:46;;;;;;;35.43;15.90;;;;;;;;;;5138241;27;20646;-70
2022/09/25 06:02:13;;;;;;;31.10;15.93;;;;;;;;;;5135033;27;20521;-69
2022/09/25 06:04:41;;;;;;;34.10;16.13;;;;;;;;;;5118450;27;20551;-69
2022/09/25 06:07:25;;;;;;;31.23;14.47;;;;;;;;;;5128463;27;20975;-70
2022/09/25 06:10:03;;;;;;;29.43;14.20;;;;;;;;;;5138355;27;20457;-68
2022/09/25 06:12:47;;;;;;;36.33;14.83;;;;;;;;;;5134459;27;21074;-69
2022/09/25 06:15:29;;;;;;;33.53;17.47;;;;;;;;;;5138310;27;20453;-69
2022/09/25 06:17:56;;;;;;;32.50;15.13;;;;;;;;;;5136587;27;20446;-69
2022/09/25 06:20:26;;;;;;;34.70;15.10;;;;;;;;;;5129507;28;20463;-69
2022/09/25 06:22:54;;;;;;;34.33;16.03;;;;;;;;;;5118784;27;20762;-69
2022/09/25 06:25:24;;;;;;;30.03;14.20;;;;;;;;;;5129070;27;20452;-69
2022/09/25 06:27:53;;;;;;;31.50;13.17;;;;;;;;;;5122384;27;20467;-69
2022/09/25 06:30:23;;;;;;;33.43;14.83;;;;;;;;;;5135045;27;20489;-69
2022/09/25 06:32:57;;;;;;;35.40;15.33;;;;;;;;;;5126970;27;20466;-70
2022/09/25 06:35:28;;;;;;;34.03;13.40;;;;;;;;;;5115409;27;20457;-69
2022/09/25 06:38:33;;;;;;;30.20;12.67;;;;;;;;;;5124724;27;20449;-69
2022/09/25 06:41:11;;;;;;;36.57;15.60;;;;;;;;;;5125694;28;20447;-69
2022/09/25 06:43:43;;;;;;;39.10;15.37;;;;;;;;;;5124742;28;20452;-68
2022/09/25 06:46:14;;;;;;;29.87;13.50;;;;;;;;;;5126267;27;20474;-69
2022/09/25 06:48:44;;;;;;;30.70;13.27;;;;;;;;;;5128054;27;20458;-70
2022/09/25 06:51:13;;;;;;;25.00;12.10;;;;;;;;;;5121907;28;20494;-69
2022/09/25 06:53:46;;;;;;;29.07;13.40;;;;;;;;;;5124450;28;20461;-70
2022/09/25 06:56:13;;;;;;;22.50;11.33;;;;;;;;;;5125621;27;20451;-69
2022/09/25 06:58:56;;;;;;;26.33;11.67;;;;;;;;;;5120775;28;20450;-69
2022/09/25 07:01:52;;;;;;;;;;;;;;;;;;;;;
2022/09/25 07:04:20;;;;;;;25.80;11.10;;;;;;;;;;5080322;27;20454;-70
2022/09/25 07:06:49;;;;;;;22.40;11.97;;;;;;;;;;5123992;27;20547;-70
2022/09/25 07:09:17;;;;;;;22.60;12.33;;;;;;;;;;5124097;27;21975;-70
2022/09/25 07:11:47;;;;;;;21.97;10.00;;;;;;;;;;5126707;28;20478;-70
2022/09/25 07:14:17;;;;;;;20.40;10.77;;;;;;;;;;5120570;28;20541;-69
2022/09/25 07:16:44;;;;;;;18.87;10.80;;;;;;;;;;5124416;28;20469;-70
2022/09/25 07:19:12;;;;;;;23.00;11.90;;;;;;;;;;5117709;28;20471;-69
2022/09/25 07:21:39;;;;;;;23.87;12.10;;;;;;;;;;5116144;28;20492;-69
2022/09/25 07:24:08;;;;;;;19.63;10.27;;;;;;;;;;5129418;27;20538;-69
2022/09/25 07:26:36;;;;;;;20.33;10.43;;;;;;;;;;5118912;28;20473;-71
2022/09/25 07:29:05;;;;;;;19.63;10.10;;;;;;;;;;5134595;27;20458;-69
2022/09/25 07:31:34;;;;;;;18.60;9.90;;;;;;;;;;5115334;28;20581;-70
2022/09/25 07:34:07;;;;;;;19.20;10.73;;;;;;;;;;5121363;28;20459;-70
2022/09/25 07:36:37;;;;;;;18.60;9.93;;;;;;;;;;5123282;27;20877;-70
2022/09/25 07:39:05;;;;;;;19.07;10.60;;;;;;;;;;5131339;28;20453;-69
2022/09/25 07:41:36;;;;;;;18.47;9.60;;;;;;;;;;5131520;27;20458;-69
2022/09/25 07:44:03;;;;;;;16.60;9.67;;;;;;;;;;5125856;27;20465;-70
2022/09/25 07:46:31;;;;;;;21.70;10.80;;;;;;;;;;5124094;27;20458;-68
2022/09/25 07:48:58;;;;;;;17.20;10.20;;;;;;;;;;5129801;27;20557;-69
2022/09/25 07:51:25;;;;;;;17.30;10.50;;;;;;;;;;5125991;27;20489;-69
2022/09/25 07:53:52;;;;;;;19.53;11.57;;;;;;;;;;5135931;27;20457;-69
2022/09/25 07:56:19;;;;;;;16.27;9.27;;;;;;;;;;5130999;27;20789;-69
2022/09/25 07:58:47;;;;;;;18.67;9.60;;;;;;;;;;5114371;28;20494;-69
2022/09/25 08:01:15;;;;;;;13.80;8.80;;;;;;;;;;5114815;28;20451;-69
2022/09/25 08:03:42;;;;;;;14.70;8.77;;;;;;;;;;5115049;28;20889;-68
2022/09/25 08:06:11;;;;;;;14.13;9.50;;;;;;;;;;5113739;28;20462;-69
2022/09/25 08:08:39;;;;;;;15.63;9.20;;;;;;;;;;5114979;28;20493;-69
2022/09/25 08:11:06;;;;;;;12.83;8.00;;;;;;;;;;5126610;27;20492;-69
2022/09/25 08:13:34;;;;;;;15.63;8.80;;;;;;;;;;5134175;27;20764;-69
2022/09/25 08:16:03;;;;;;;11.70;7.50;;;;;;;;;;5120062;27;20561;-69
2022/09/25 08:18:30;;;;;;;13.33;7.47;;;;;;;;;;5114558;28;20462;-69
2022/09/25 08:21:01;;;;;;;13.73;8.20;;;;;;;;;;5114735;27;20462;-69
2022/09/25 08:23:28;;;;;;;12.53;6.63;;;;;;;;;;5119031;27;20805;-69
2022/09/25 08:25:56;;;;;;;12.57;6.33;;;;;;;;;;5122141;27;20455;-69
2022/09/25 08:28:24;;;;;;;8.30;5.27;;;;;;;;;;5128553;28;20472;-69
2022/09/25 08:30:51;;;;;;;13.07;7.33;;;;;;;;;;5122727;27;20486;-69
2022/09/25 08:33:22;;;;;;;10.20;6.40;;;;;;;;;;5114469;28;20541;-69
2022/09/25 08:35:55;;;;;;;11.07;7.20;;;;;;;;;;5122185;27;20468;-69
2022/09/25 08:38:24;;;;;;;13.97;7.47;;;;;;;;;;5118732;28;20730;-68
2022/09/25 08:40:53;;;;;;;13.60;7.57;;;;;;;;;;5116204;27;20891;-69
2022/09/25 08:43:22;;;;;;;11.20;7.10;;;;;;;;;;5114544;28;20447;-70
2022/09/25 08:51:28;;;;;;;10.30;7.07;;;;;;;;;;5102886;27;20466;-70
2022/09/25 08:53:55;;;;;;;9.67;6.37;;;;;;;;;;5120486;28;20458;-68
2022/09/25 08:56:23;;;;;;;7.67;5.60;;;;;;;;;;5114140;28;20885;-69
2022/09/25 08:58:53;;;;;;;8.20;6.30;;;;;;;;;;5114410;28;20545;-69
2022/09/25 09:01:22;;;;;;;10.80;6.30;;;;;;;;;;5123236;27;20530;-69
2022/09/25 09:03:53;;;;;;;9.20;6.10;;;;;;;;;;5125275;27;20433;-69
2022/09/25 09:06:21;;;;;;;7.63;5.13;;;;;;;;;;5119370;27;20554;-69
2022/09/25 09:08:51;;;;;;;9.30;6.30;;;;;;;;;;5120818;28;20812;-69
2022/09/25 09:11:21;;;;;;;10.27;7.60;;;;;;;;;;5132914;27;20576;-70
2022/09/25 09:13:50;;;;;;;13.40;9.77;;;;;;;;;;5114106;28;20438;-69
2022/09/25 09:16:21;;;;;;;12.30;8.07;;;;;;;;;;5117278;27;20545;-70
2022/09/25 09:18:48;;;;;;;9.60;7.07;;;;;;;;;;5113365;28;20451;-69
2022/09/25 09:21:21;;;;;;;7.50;6.00;;;;;;;;;;5120570;27;20915;-69
2022/09/25 09:23:51;;;;;;;9.50;5.97;;;;;;;;;;5115168;28;20447;-69
2022/09/25 09:26:24;;;;;;;8.90;6.17;;;;;;;;;;5117017;28;20485;-69
2022/09/25 09:28:58;;;;;;;8.23;6.20;;;;;;;;;;5128679;28;20809;-69
2022/09/25 09:31:27;;;;;;;8.77;6.20;;;;;;;;;;5127729;27;20893;-69
2022/09/25 09:33:58;;;;;;;7.43;4.90;;;;;;;;;;5119961;28;20754;-69
2022/09/25 09:36:31;;;;;;;7.03;5.30;;;;;;;;;;5117763;27;20549;-70
2022/09/25 09:39:01;;;;;;;7.73;5.27;;;;;;;;;;5119732;27;20454;-69
2022/09/25 09:41:33;;;;;;;6.30;5.20;;;;;;;;;;5130318;27;20465;-69
2022/09/25 09:44:23;;;;;;;6.90;5.53;;;;;;;;;;5116558;28;21001;-69
2022/09/25 09:46:55;;;;;;;6.73;5.23;;;;;;;;;;5113356;28;20459;-69
2022/09/25 09:49:28;;;;;;;7.20;5.23;;;;;;;;;;5115425;28;20453;-69
2022/09/25 09:51:59;;;;;;;8.20;5.73;;;;;;;;;;5120907;28;20485;-69
2022/09/25 09:54:31;;;;;;;7.87;6.13;;;;;;;;;;5129394;27;20530;-69
2022/09/25 09:57:00;;;;;;;8.50;6.60;;;;;;;;;;5132521;28;20850;-70
2022/09/25 09:59:30;;;;;;;9.33;5.90;;;;;;;;;;5116353;28;20882;-69
2022/09/25 10:02:01;;;;;;;7.80;5.87;;;;;;;;;;5119714;28;20771;-70
2022/09/25 10:04:31;;;;;;;7.67;5.90;;;;;;;;;;5123942;28;20484;-70
2022/09/25 10:07:04;;;;;;;7.27;4.80;;;;;;;;;;5136655;27;20458;-70
2022/09/25 10:09:31;;;;;;;7.97;6.03;;;;;;;;;;5134933;27;20450;-69
2022/09/25 10:12:00;;;;;;;8.13;6.00;;;;;;;;;;5119936;27;20486;-70
2022/09/25 10:14:32;;;;;;;9.30;7.10;;;;;;;;;;5116498;28;20780;-69
2022/09/25 10:17:00;;;;;;;9.17;7.67;;;;;;;;;;5116153;28;20454;-69
2022/09/25 10:19:29;;;;;;;8.93;7.30;;;;;;;;;;5113913;28;20464;-70
2022/09/25 10:21:59;;;;;;;8.30;6.63;;;;;;;;;;5125618;27;20497;-68
2022/09/25 10:24:44;;;;;;;7.60;6.13;;;;;;;;;;5128673;28;20561;-69
2022/09/25 10:27:23;;;;;;;7.50;6.20;;;;;;;;;;5134546;27;20462;-69
2022/09/25 10:30:01;;;;;;;9.03;6.17;;;;;;;;;;5120321;27;20443;-69
2022/09/25 10:32:38;;;;;;;8.43;6.40;;;;;;;;;;5133936;27;20550;-69
2022/09/25 10:35:06;;;;;;;8.83;6.30;;;;;;;;;;5124399;28;20454;-68
2022/09/25 10:37:36;;;;;;;9.67;7.20;;;;;;;;;;5113493;28;20454;-69
2022/09/25 10:40:06;;;;;;;9.00;6.73;;;;;;;;;;5118593;27;20442;-69
2022/09/25 10:42:36;;;;;;;8.70;7.30;;;;;;;;;;5113835;28;20582;-68
2022/09/25 10:45:27;;;;;;;8.07;7.00;;;;;;;;;;5119574;28;20468;-69
2022/09/25 10:50:43;;;;;;;10.47;7.20;;;;;;;;;;5114608;28;20477;-72
2022/09/25 10:53:29;;;;;;;10.10;6.60;;;;;;;;;;5113849;28;20862;-68
2022/09/25 10:56:00;;;;;;;10.73;7.60;;;;;;;;;;5114030;28;20526;-68
2022/09/25 10:58:33;;;;;;;10.53;7.80;;;;;;;;;;5118131;28;20489;-69
2022/09/25 11:01:06;;;;;;;9.93;7.23;;;;;;;;;;5132139;27;20486;-69
2022/09/25 11:03:34;;;;;;;10.60;7.97;;;;;;;;;;5133922;27;20489;-67
2022/09/25 11:06:03;;;;;;;10.90;7.90;;;;;;;;;;5133903;27;20457;-69
2022/09/25 11:08:33;;;;;;;11.20;8.60;;;;;;;;;;5134371;27;20453;-68
2022/09/25 11:11:01;;;;;;;11.80;8.27;;;;;;;;;;5132143;27;20531;-69
2022/09/25 11:13:35;;;;;;;12.40;9.80;;;;;;;;;;5119908;27;20788;-69
2022/09/25 11:16:08;;;;;;;10.90;9.63;;;;;;;;;;5115832;27;20465;-69
2022/09/25 11:18:42;;;;;;;13.43;8.67;;;;;;;;;;5119843;28;20961;-70
2022/09/25 11:21:19;;;;;;;9.70;7.27;;;;;;;;;;5123306;28;20474;-69
2022/09/25 11:23:54;;;;;;;8.07;6.90;;;;;;;;;;5124279;27;20458;-69
2022/09/25 11:26:22;;;;;;;6.50;5.80;;;;;;;;;;5129495;27;20537;-69
2022/09/25 11:28:54;;;;;;;7.30;5.57;;;;;;;;;;5123485;27;20494;-70
2022/09/25 11:31:27;;;;;;;7.63;5.27;;;;;;;;;;5112978;28;20485;-70
2022/09/25 11:33:57;;;;;;;11.60;5.17;;;;;;;;;;5113017;28;20557;-69
2022/09/25 11:36:28;;;;;;;6.20;4.70;;;;;;;;;;5117530;27;20578;-69
2022/09/25 11:41:50;;;;;;;4.70;3.77;;;;;;;;;;5113603;28;20441;-69
2022/09/25 11:44:26;;;;;;;4.43;2.90;;;;;;;;;;5135912;27;20896;-71
2022/09/25 11:47:00;;;;;;;3.57;2.43;;;;;;;;;;5123599;27;20542;-68
2022/09/25 11:49:33;;;;;;;4.37;3.10;;;;;;;;;;5115503;27;20523;-69
2022/09/25 11:52:21;;;;;;;3.33;2.80;;;;;;;;;;5120446;27;20496;-69
2022/09/25 11:55:01;;;;;;;3.73;3.10;;;;;;;;;;5124921;28;20496;-69
2022/09/25 11:57:32;;;;;;;4.20;3.53;;;;;;;;;;5118136;27;20480;-70
2022/09/25 12:00:04;;;;;;;4.57;4.03;;;;;;;;;;5112936;28;20462;-69
2022/09/25 12:02:39;;;;;;;5.63;4.30;;;;;;;;;;5113950;28;20541;-68
2022/09/25 12:05:25;;;;;;;5.20;4.20;;;;;;;;;;5132645;27;20464;-69
2022/09/25 12:08:21;;;;;;;5.70;4.47;;;;;;;;;;5126500;27;20554;-69
2022/09/25 12:10:55;;;;;;;5.67;4.80;;;;;;;;;;5117175;27;20748;-69
2022/09/25 12:13:30;;;;;;;6.70;5.13;;;;;;;;;;5115333;27;20548;-68
2022/09/25 12:16:14;;;;;;;6.50;5.40;;;;;;;;;;5121846;28;20461;-69
2022/09/25 12:19:05;;;;;;;7.53;5.10;;;;;;;;;;5117490;28;20457;-69
2022/09/25 12:21:44;;;;;;;6.73;4.70;;;;;;;;;;5114163;27;20466;-69
2022/09/25 12:24:16;;;;;;;6.77;4.90;;;;;;;;;;5113121;28;20463;-68
2022/09/25 12:26:52;;;;;;;7.30;5.00;;;;;;;;;;5113591;28;20462;-70
2022/09/25 12:29:31;;;;;;;6.20;4.90;;;;;;;;;;5131907;27;20548;-69
2022/09/25 12:32:04;;;;;;;6.37;5.20;;;;;;;;;;5116950;27;20486;-69
2022/09/25 12:34:49;;;;;;;7.17;5.83;;;;;;;;;;5112222;28;20462;-70
2022/09/25 12:37:28;;;;;;;7.27;5.10;;;;;;;;;;5126890;28;20442;-69
2022/09/25 12:42:48;;;;;;;6.80;5.60;;;;;;;;;;5130004;27;20453;-70
2022/09/25 12:45:22;;;;;;;6.67;6.00;;;;;;;;;;5113012;28;20541;-69
2022/09/25 12:47:59;;;;;;;6.33;5.53;;;;;;;;;;5115661;27;20454;-69
2022/09/25 12:50:29;;;;;;;10.60;7.20;;;;;;;;;;5124316;27;20514;-69
2022/09/25 12:53:08;;;;;;;8.77;6.53;;;;;;;;;;5116588;28;20520;-69
2022/09/25 12:55:41;;;;;;;8.20;6.27;;;;;;;;;;5114953;28;20481;-68
2022/09/25 12:58:17;;;;;;;6.70;5.73;;;;;;;;;;5121742;28;20555;-68
2022/09/25 13:00:46;;;;;;;11.60;5.53;;;;;;;;;;5111940;28;20489;-68
2022/09/25 13:03:16;;;;;;;8.17;5.30;;;;;;;;;;5121096;28;20795;-69
2022/09/25 13:05:44;;;;;;;5.20;3.53;;;;;;;;;;5120640;27;20757;-69
2022/09/25 13:08:16;;;;;;;7.40;4.40;;;;;;;;;;5129118;27;20475;-71
2022/09/25 13:10:46;;;;;;;4.27;3.10;;;;;;;;;;5132110;28;20564;-68
2022/09/25 13:13:18;;;;;;;5.80;4.13;;;;;;;;;;5119433;27;20533;-70
2022/09/25 13:15:49;;;;;;;5.30;4.03;;;;;;;;;;5128105;28;20526;-69
2022/09/25 13:18:24;;;;;;;6.20;3.23;;;;;;;;;;5122346;27;20561;-70
2022/09/25 13:20:52;;;;;;;6.50;3.70;;;;;;;;;;5118535;27;20480;-69
2022/09/25 13:23:27;;;;;;;11.50;3.43;;;;;;;;;;5125591;27;21145;-69
2022/09/25 13:25:59;;;;;;;4.70;2.63;;;;;;;;;;5123471;28;20457;-68
2022/09/25 13:28:29;;;;;;;3.70;2.20;;;;;;;;;;5126095;27;20853;-70
2022/09/25 13:31:15;;;;;;;4.30;2.37;;;;;;;;;;5119993;28;20544;-69
2022/09/25 13:33:44;;;;;;;6.40;2.47;;;;;;;;;;5126279;28;20458;-70
2022/09/25 13:36:16;;;;;;;3.77;1.83;;;;;;;;;;5128157;27;20549;-70
2022/09/25 13:41:31;;;;;;;2.67;1.37;;;;;;;;;;5123230;28;20454;-69
2022/09/25 13:44:19;;;;;;;6.17;2.07;;;;;;;;;;5129362;27;20522;-70
2022/09/25 13:46:46;;;;;;;5.57;1.80;;;;;;;;;;5111575;27;20545;-70
2022/09/25 13:49:34;;;;;;;3.70;1.93;;;;;;;;;;5126741;28;20533;-69
2022/09/25 13:52:03;;;;;;;3.40;2.10;;;;;;;;;;5117007;27;20921;-69
2022/09/25 13:54:33;;;;;;;4.67;2.10;;;;;;;;;;5129428;28;20518;-69
2022/09/25 13:57:00;;;;;;;2.57;1.40;;;;;;;;;;5126897;27;20470;-69
2022/09/25 13:59:38;;;;;;;5.50;2.87;;;;;;;;;;5125839;28;20462;-69
2022/09/25 14:02:25;;;;;;;9.47;2.03;;;;;;;;;;5124395;28;20445;-68
2022/09/25 14:04:53;;;;;;;3.57;2.03;;;;;;;;;;5129292;27;20457;-69
2022/09/25 14:07:23;;;;;;;2.97;1.70;;;;;;;;;;5119263;28;20952;-68
2022/09/25 14:09:53;;;;;;;4.60;1.70;;;;;;;;;;5124658;27;20501;-69
2022/09/25 14:12:24;;;;;;;3.37;1.50;;;;;;;;;;5133099;27;20478;-69
2022/09/25 14:14:58;;;;;;;5.07;1.70;;;;;;;;;;5121414;28;20478;-70
2022/09/25 14:17:30;;;;;;;5.60;1.70;;;;;;;;;;5135287;27;20487;-69
2022/09/25 14:19:58;;;;;;;5.03;1.60;;;;;;;;;;5135733;27;20466;-69
2022/09/25 14:22:30;;;;;;;2.67;1.67;;;;;;;;;;5120392;28;20459;-69
2022/09/25 14:25:01;;;;;;;2.97;1.30;;;;;;;;;;5132891;27;20469;-69
2022/09/25 14:27:29;;;;;;;2.37;1.67;;;;;;;;;;5117274;28;20909;-69
2022/09/25 14:30:08;;;;;;;2.37;1.53;;;;;;;;;;5118569;28;20496;-69
2022/09/25 14:32:40;;;;;;;3.33;1.83;;;;;;;;;;5115974;28;20486;-69
2022/09/25 14:35:23;;;;;;;4.00;1.50;;;;;;;;;;5123506;28;20782;-69
2022/09/25 14:38:06;;;;;;;2.93;1.70;;;;;;;;;;5131669;27;20476;-69
2022/09/25 14:40:36;;;;;;;2.33;1.50;;;;;;;;;;5135366;27;20457;-69
2022/09/25 14:43:13;;;;;;;4.50;1.70;;;;;;;;;;5136953;27;20505;-69
2022/09/25 14:45:46;;;;;;;3.83;2.57;;;;;;;;;;5136647;27;20513;-69
2022/09/25 14:48:15;;;;;;;2.83;1.63;;;;;;;;;;5123693;27;20751;-69
2022/09/25 14:50:48;;;;;;;6.67;2.40;;;;;;;;;;5122534;28;20926;-69
2022/09/25 14:53:24;;;;;;;4.10;1.90;;;;;;;;;;5124187;27;20462;-69
2022/09/25 14:55:53;;;;;;;3.10;1.80;;;;;;;;;;5132308;27;20850;-69
2022/09/25 14:58:21;;;;;;;3.10;1.63;;;;;;;;;;5129725;27;20804;-68
2022/09/25 15:00:51;;;;;;;2.57;1.50;;;;;;;;;;5125728;27;20461;-69
2022/09/25 15:03:19;;;;;;;2.97;1.23;;;;;;;;;;5127745;27;20467;-69
2022/09/25 15:05:47;;;;;;;5.30;1.50;;;;;;;;;;5121905;27;20468;-68
2022/09/25 15:08:21;;;;;;;6.13;1.50;;;;;;;;;;5121653;27;20853;-69
2022/09/25 15:10:50;;;;;;;5.53;1.60;;;;;;;;;;5118527;28;20831;-69
2022/09/25 15:13:32;;;;;;;3.73;2.27;;;;;;;;;;5117488;27;20925;-69
2022/09/25 15:18:53;;;;;;;3.17;1.20;;;;;;;;;;5116931;28;20505;-69
2022/09/25 15:21:22;;;;;;;3.83;1.90;;;;;;;;;;5129970;27;20462;-69